sensor_id;sensor_type;location;lat;lon;timestamp;pressure;altitude;pressure_sealevel;temperature;humidity
27805;BME280;15183;51.350;11.102;2022-12-18T00:01:28;101562.59;;;-2.83;61.52
27805;BME280;15183;51.350;11.102;2022-12-18T00:03:56;101574.81;;;-2.71;61.89
27805;BME280;15183;51.350;11.102;2022-12-18T00:06:24;101579.53;;;-2.63;61.48
27805;BME280;15183;51.350;11.102;2022-12-18T00:08:52;101555.78;;;-2.71;62.39
27805;BME280;15183;51.350;11.102;2022-12-18T00:11:23;101577.56;;;-2.59;62.06
27805;BME280;15183;51.350;11.102;2022-12-18T00:13:50;101589.31;;;-2.54;62.48
27805;BME280;15183;51.350;11.102;2022-12-18T00:16:20;101584.13;;;-2.54;61.97
27805;BME280;15183;51.350;11.102;2022-12-18T00:18:48;101571.81;;;-2.65;62.47
27805;BME280;15183;51.350;11.102;2022-12-18T00:21:17;101585.88;;;-2.54;62.67
27805;BME280;15183;51.350;11.102;2022-12-18T00:23:45;101595.97;;;-2.50;61.75
27805;BME280;15183;51.350;11.102;2022-12-18T00:26:33;101580.88;;;-2.57;61.90
27805;BME280;15183;51.350;11.102;2022-12-18T00:29:11;101585.16;;;-2.56;61.45
27805;BME280;15183;51.350;11.102;2022-12-18T00:31:41;101564.69;;;-2.76;61.44
27805;BME280;15183;51.350;11.102;2022-12-18T00:34:11;101589.06;;;-2.64;61.65
27805;BME280;15183;51.350;11.102;2022-12-18T00:36:40;101581.38;;;-2.65;61.94
27805;BME280;15183;51.350;11.102;2022-12-18T00:39:07;101567.22;;;-2.74;61.29
27805;BME280;15183;51.350;11.102;2022-12-18T00:41:34;101606.38;;;-2.50;61.88
27805;BME280;15183;51.350;11.102;2022-12-18T00:44:19;101602.19;;;-2.52;61.71
27805;BME280;15183;51.350;11.102;2022-12-18T00:46:47;101599.97;;;-2.58;61.19
27805;BME280;15183;51.350;11.102;2022-12-18T00:49:16;101600.28;;;-2.63;61.33
27805;BME280;15183;51.350;11.102;2022-12-18T00:51:44;101611.28;;;-2.59;61.33
27805;BME280;15183;51.350;11.102;2022-12-18T00:54:10;101583.78;;;-2.77;61.18
27805;BME280;15183;51.350;11.102;2022-12-18T00:56:39;101604.16;;;-2.70;61.43
27805;BME280;15183;51.350;11.102;2022-12-18T00:59:05;101603.59;;;-2.76;60.99
27805;BME280;15183;51.350;11.102;2022-12-18T01:01:32;101617.84;;;-2.68;61.49
27805;BME280;15183;51.350;11.102;2022-12-18T01:04:01;101619.72;;;-2.70;61.53
27805;BME280;15183;51.350;11.102;2022-12-18T01:06:28;101608.53;;;-2.71;61.44
27805;BME280;15183;51.350;11.102;2022-12-18T01:08:55;101614.25;;;-2.66;61.60
27805;BME280;15183;51.350;11.102;2022-12-18T01:11:22;101616.59;;;-2.61;61.93
27805;BME280;15183;51.350;11.102;2022-12-18T01:13:48;101623.44;;;-2.60;61.77
27805;BME280;15183;51.350;11.102;2022-12-18T01:16:17;101626.03;;;-2.60;61.76
27805;BME280;15183;51.350;11.102;2022-12-18T01:18:44;101626.22;;;-2.63;61.18
27805;BME280;15183;51.350;11.102;2022-12-18T01:21:14;101621.19;;;-2.66;61.59
27805;BME280;15183;51.350;11.102;2022-12-18T01:23:44;101623.25;;;-2.71;61.21
27805;BME280;15183;51.350;11.102;2022-12-18T01:26:15;101616.56;;;-2.76;61.86
27805;BME280;15183;51.350;11.102;2022-12-18T01:28:42;101612.69;;;-2.83;61.65
27805;BME280;15183;51.350;11.102;2022-12-18T01:31:20;101614.94;;;-2.91;60.96
27805;BME280;15183;51.350;11.102;2022-12-18T01:33:47;101632.25;;;-2.77;60.72
27805;BME280;15183;51.350;11.102;2022-12-18T01:36:23;101625.47;;;-2.80;60.54
27805;BME280;15183;51.350;11.102;2022-12-18T01:38:51;101632.03;;;-2.88;60.05
27805;BME280;15183;51.350;11.102;2022-12-18T01:41:26;101621.59;;;-3.01;60.04
27805;BME280;15183;51.350;11.102;2022-12-18T01:47:36;101644.34;;;-3.07;59.96
27805;BME280;15183;51.350;11.102;2022-12-18T01:52:43;101632.41;;;-3.09;60.14
27805;BME280;15183;51.350;11.102;2022-12-18T01:55:12;101629.91;;;-3.11;59.65
27805;BME280;15183;51.350;11.102;2022-12-18T01:57:39;101637.69;;;-3.11;59.75
27805;BME280;15183;51.350;11.102;2022-12-18T02:00:15;101650.75;;;-3.12;59.33
27805;BME280;15183;51.350;11.102;2022-12-18T02:02:43;101643.84;;;-3.28;58.94
27805;BME280;15183;51.350;11.102;2022-12-18T02:05:11;101648.41;;;-3.31;58.78
27805;BME280;15183;51.350;11.102;2022-12-18T02:16:41;101648.38;;;-3.62;59.55
27805;BME280;15183;51.350;11.102;2022-12-18T02:27:59;101669.25;;;-3.49;58.60
27805;BME280;15183;51.350;11.102;2022-12-18T02:30:29;101665.34;;;-3.56;58.49
27805;BME280;15183;51.350;11.102;2022-12-18T02:32:58;101650.81;;;-3.59;58.78
27805;BME280;15183;51.350;11.102;2022-12-18T02:35:28;101658.41;;;-3.56;59.45
27805;BME280;15183;51.350;11.102;2022-12-18T02:37:56;101642.38;;;-3.63;59.39
27805;BME280;15183;51.350;11.102;2022-12-18T02:40:26;101644.78;;;-3.59;59.75
27805;BME280;15183;51.350;11.102;2022-12-18T02:42:54;101657.22;;;-3.50;59.28
27805;BME280;15183;51.350;11.102;2022-12-18T02:45:21;101656.03;;;-3.44;60.00
27805;BME280;15183;51.350;11.102;2022-12-18T02:47:49;101661.72;;;-3.38;59.86
27805;BME280;15183;51.350;11.102;2022-12-18T02:56:08;101644.53;;;-3.24;60.52
27805;BME280;15183;51.350;11.102;2022-12-18T02:59:04;101623.03;;;-3.26;60.57
27805;BME280;15183;51.350;11.102;2022-12-18T03:04:25;101622.66;;;-3.35;60.07
27805;BME280;15183;51.350;11.102;2022-12-18T03:07:01;101648.59;;;-3.20;59.33
27805;BME280;15183;51.350;11.102;2022-12-18T03:09:39;101656.19;;;-3.17;59.41
27805;BME280;15183;51.350;11.102;2022-12-18T03:12:40;101656.47;;;-3.22;59.87
27805;BME280;15183;51.350;11.102;2022-12-18T03:15:19;101659.06;;;-3.22;59.61
27805;BME280;15183;51.350;11.102;2022-12-18T03:18:01;101659.16;;;-3.23;60.13
27805;BME280;15183;51.350;11.102;2022-12-18T03:20:31;101671.00;;;-3.19;60.10
27805;BME280;15183;51.350;11.102;2022-12-18T03:23:09;101663.47;;;-3.24;60.35
27805;BME280;15183;51.350;11.102;2022-12-18T03:25:41;101634.28;;;-3.42;59.99
27805;BME280;15183;51.350;11.102;2022-12-18T03:28:14;101658.41;;;-3.25;59.43
27805;BME280;15183;51.350;11.102;2022-12-18T03:30:44;101668.03;;;-3.27;60.30
27805;BME280;15183;51.350;11.102;2022-12-18T03:33:27;101685.25;;;-3.26;60.15
27805;BME280;15183;51.350;11.102;2022-12-18T03:35:55;101668.09;;;-3.29;60.20
27805;BME280;15183;51.350;11.102;2022-12-18T03:38:22;101671.25;;;-3.24;59.89
27805;BME280;15183;51.350;11.102;2022-12-18T03:41:51;101675.44;;;-3.21;59.31
27805;BME280;15183;51.350;11.102;2022-12-18T03:44:55;101674.88;;;-3.26;58.73
27805;BME280;15183;51.350;11.102;2022-12-18T03:53:14;101669.06;;;-3.46;59.31
27805;BME280;15183;51.350;11.102;2022-12-18T03:55:44;101655.28;;;-3.46;59.33
27805;BME280;15183;51.350;11.102;2022-12-18T03:58:14;101665.88;;;-3.35;59.45
27805;BME280;15183;51.350;11.102;2022-12-18T04:00:43;101666.44;;;-3.30;59.65
27805;BME280;15183;51.350;11.102;2022-12-18T04:03:10;101657.16;;;-3.34;59.87
27805;BME280;15183;51.350;11.102;2022-12-18T04:05:37;101667.91;;;-3.26;59.81
27805;BME280;15183;51.350;11.102;2022-12-18T04:08:04;101649.97;;;-3.29;59.76
27805;BME280;15183;51.350;11.102;2022-12-18T04:10:31;101653.97;;;-3.23;60.38
27805;BME280;15183;51.350;11.102;2022-12-18T04:12:58;101651.94;;;-3.18;59.86
27805;BME280;15183;51.350;11.102;2022-12-18T04:15:24;101649.91;;;-3.13;59.64
27805;BME280;15183;51.350;11.102;2022-12-18T04:17:51;101647.69;;;-3.05;60.31
27805;BME280;15183;51.350;11.102;2022-12-18T04:20:18;101642.97;;;-2.98;60.18
27805;BME280;15183;51.350;11.102;2022-12-18T04:22:44;101647.72;;;-2.90;60.29
27805;BME280;15183;51.350;11.102;2022-12-18T04:25:11;101652.72;;;-2.87;60.07
27805;BME280;15183;51.350;11.102;2022-12-18T04:27:37;101643.06;;;-2.85;59.93
27805;BME280;15183;51.350;11.102;2022-12-18T04:30:05;101648.19;;;-2.83;59.82
27805;BME280;15183;51.350;11.102;2022-12-18T04:32:34;101643.00;;;-2.83;59.54
27805;BME280;15183;51.350;11.102;2022-12-18T04:35:00;101649.06;;;-2.84;60.16
27805;BME280;15183;51.350;11.102;2022-12-18T04:37:27;101660.84;;;-2.79;59.79
27805;BME280;15183;51.350;11.102;2022-12-18T04:39:54;101661.59;;;-2.77;60.30
27805;BME280;15183;51.350;11.102;2022-12-18T04:42:20;101652.88;;;-2.76;60.87
27805;BME280;15183;51.350;11.102;2022-12-18T04:44:46;101652.63;;;-2.71;60.50
27805;BME280;15183;51.350;11.102;2022-12-18T04:47:13;101659.94;;;-2.63;60.79
27805;BME280;15183;51.350;11.102;2022-12-18T04:49:39;101661.31;;;-2.57;61.12
27805;BME280;15183;51.350;11.102;2022-12-18T04:52:07;101665.50;;;-2.55;60.60
27805;BME280;15183;51.350;11.102;2022-12-18T04:54:33;101662.78;;;-2.53;60.83
27805;BME280;15183;51.350;11.102;2022-12-18T04:57:00;101658.25;;;-2.50;60.49
27805;BME280;15183;51.350;11.102;2022-12-18T04:59:26;101668.06;;;-2.40;61.04
27805;BME280;15183;51.350;11.102;2022-12-18T05:01:53;101658.06;;;-2.47;60.49
27805;BME280;15183;51.350;11.102;2022-12-18T05:04:19;101668.63;;;-2.50;60.01
27805;BME280;15183;51.350;11.102;2022-12-18T05:06:46;101664.47;;;-2.52;60.77
27805;BME280;15183;51.350;11.102;2022-12-18T05:09:12;101675.88;;;-2.55;60.54
27805;BME280;15183;51.350;11.102;2022-12-18T05:11:38;101692.91;;;-2.51;61.10
27805;BME280;15183;51.350;11.102;2022-12-18T05:14:05;101681.72;;;-2.66;60.80
27805;BME280;15183;51.350;11.102;2022-12-18T05:16:31;101678.38;;;-2.82;61.04
27805;BME280;15183;51.350;11.102;2022-12-18T05:18:58;101674.47;;;-2.89;61.50
27805;BME280;15183;51.350;11.102;2022-12-18T05:21:24;101657.41;;;-3.08;61.80
27805;BME280;15183;51.350;11.102;2022-12-18T05:23:50;101681.13;;;-3.00;62.02
27805;BME280;15183;51.350;11.102;2022-12-18T05:26:18;101667.22;;;-3.13;61.46
27805;BME280;15183;51.350;11.102;2022-12-18T05:28:45;101667.13;;;-3.12;61.40
27805;BME280;15183;51.350;11.102;2022-12-18T05:31:12;101681.50;;;-3.06;61.99
27805;BME280;15183;51.350;11.102;2022-12-18T05:33:39;101681.97;;;-2.99;62.03
27805;BME280;15183;51.350;11.102;2022-12-18T05:36:08;101681.78;;;-2.96;61.50
27805;BME280;15183;51.350;11.102;2022-12-18T05:38:37;101687.59;;;-2.93;61.58
27805;BME280;15183;51.350;11.102;2022-12-18T05:41:05;101673.03;;;-3.10;60.76
27805;BME280;15183;51.350;11.102;2022-12-18T05:43:35;101685.00;;;-3.07;60.92
27805;BME280;15183;51.350;11.102;2022-12-18T05:46:12;101687.47;;;-3.20;61.23
27805;BME280;15183;51.350;11.102;2022-12-18T05:48:40;101684.41;;;-3.27;61.14
27805;BME280;15183;51.350;11.102;2022-12-18T05:51:10;101676.97;;;-3.33;61.31
27805;BME280;15183;51.350;11.102;2022-12-18T05:53:37;101662.31;;;-3.49;61.72
27805;BME280;15183;51.350;11.102;2022-12-18T05:56:07;101663.84;;;-3.60;61.45
27805;BME280;15183;51.350;11.102;2022-12-18T05:58:34;101689.31;;;-3.53;61.71
27805;BME280;15183;51.350;11.102;2022-12-18T06:01:27;101687.72;;;-3.55;61.88
27805;BME280;15183;51.350;11.102;2022-12-18T06:03:55;101674.00;;;-3.72;62.05
27805;BME280;15183;51.350;11.102;2022-12-18T06:06:24;101698.63;;;-3.65;62.10
27805;BME280;15183;51.350;11.102;2022-12-18T06:08:52;101697.44;;;-3.59;62.14
27805;BME280;15183;51.350;11.102;2022-12-18T06:11:23;101712.38;;;-3.48;62.19
27805;BME280;15183;51.350;11.102;2022-12-18T06:13:52;101708.84;;;-3.47;62.08
27805;BME280;15183;51.350;11.102;2022-12-18T06:16:19;101718.91;;;-3.41;61.89
27805;BME280;15183;51.350;11.102;2022-12-18T06:18:45;101706.94;;;-3.43;62.25
27805;BME280;15183;51.350;11.102;2022-12-18T06:21:12;101713.53;;;-3.38;62.06
27805;BME280;15183;51.350;11.102;2022-12-18T06:23:39;101706.50;;;-3.36;62.01
27805;BME280;15183;51.350;11.102;2022-12-18T06:26:09;101709.06;;;-3.20;61.59
27805;BME280;15183;51.350;11.102;2022-12-18T06:28:35;101691.16;;;-3.24;61.43
27805;BME280;15183;51.350;11.102;2022-12-18T06:31:06;101689.88;;;-3.17;61.09
27805;BME280;15183;51.350;11.102;2022-12-18T06:33:33;101706.38;;;-3.03;61.69
27805;BME280;15183;51.350;11.102;2022-12-18T06:36:10;101695.88;;;-3.00;61.46
27805;BME280;15183;51.350;11.102;2022-12-18T06:38:40;101716.25;;;-2.94;61.48
27805;BME280;15183;51.350;11.102;2022-12-18T06:41:19;101699.84;;;-2.95;61.23
27805;BME280;15183;51.350;11.102;2022-12-18T06:43:47;101717.91;;;-2.79;61.19
27805;BME280;15183;51.350;11.102;2022-12-18T06:46:13;101711.06;;;-2.80;61.29
27805;BME280;15183;51.350;11.102;2022-12-18T06:48:40;101707.47;;;-2.77;61.34
27805;BME280;15183;51.350;11.102;2022-12-18T06:51:08;101720.53;;;-2.64;61.50
27805;BME280;15183;51.350;11.102;2022-12-18T06:53:34;101694.50;;;-2.77;61.83
27805;BME280;15183;51.350;11.102;2022-12-18T06:56:06;101718.59;;;-2.60;61.13
27805;BME280;15183;51.350;11.102;2022-12-18T06:58:33;101724.63;;;-2.60;61.20
27805;BME280;15183;51.350;11.102;2022-12-18T07:01:05;101716.84;;;-2.60;60.92
27805;BME280;15183;51.350;11.102;2022-12-18T07:03:32;101710.31;;;-2.67;60.64
27805;BME280;15183;51.350;11.102;2022-12-18T07:05:58;101696.78;;;-2.72;60.71
27805;BME280;15183;51.350;11.102;2022-12-18T07:08:25;101706.91;;;-2.68;61.25
27805;BME280;15183;51.350;11.102;2022-12-18T07:10:51;101707.72;;;-2.67;60.60
27805;BME280;15183;51.350;11.102;2022-12-18T07:13:20;101707.09;;;-2.71;60.67
27805;BME280;15183;51.350;11.102;2022-12-18T07:15:46;101727.22;;;-2.60;61.39
27805;BME280;15183;51.350;11.102;2022-12-18T07:18:13;101738.03;;;-2.53;61.43
27805;BME280;15183;51.350;11.102;2022-12-18T07:20:39;101731.09;;;-2.53;61.44
27805;BME280;15183;51.350;11.102;2022-12-18T07:23:05;101735.44;;;-2.53;60.68
27805;BME280;15183;51.350;11.102;2022-12-18T07:25:36;101730.44;;;-2.56;60.58
27805;BME280;15183;51.350;11.102;2022-12-18T07:28:03;101740.81;;;-2.56;60.89
27805;BME280;15183;51.350;11.102;2022-12-18T07:30:30;101753.34;;;-2.63;60.32
27805;BME280;15183;51.350;11.102;2022-12-18T07:32:56;101743.50;;;-2.72;60.57
27805;BME280;15183;51.350;11.102;2022-12-18T07:35:23;101738.97;;;-2.69;60.97
27805;BME280;15183;51.350;11.102;2022-12-18T07:37:49;101753.34;;;-2.63;60.60
27805;BME280;15183;51.350;11.102;2022-12-18T07:40:16;101750.75;;;-2.63;60.45
27805;BME280;15183;51.350;11.102;2022-12-18T07:42:42;101760.84;;;-2.58;61.03
27805;BME280;15183;51.350;11.102;2022-12-18T07:45:09;101774.56;;;-2.56;61.04
27805;BME280;15183;51.350;11.102;2022-12-18T07:47:37;101773.72;;;-2.57;60.98
27805;BME280;15183;51.350;11.102;2022-12-18T07:50:04;101779.47;;;-2.52;60.87
27805;BME280;15183;51.350;11.102;2022-12-18T07:52:31;101768.72;;;-2.60;60.36
27805;BME280;15183;51.350;11.102;2022-12-18T07:54:57;101762.13;;;-2.66;60.12
27805;BME280;15183;51.350;11.102;2022-12-18T07:57:24;101775.94;;;-2.65;59.73
27805;BME280;15183;51.350;11.102;2022-12-18T07:59:50;101761.25;;;-2.95;60.03
27805;BME280;15183;51.350;11.102;2022-12-18T08:02:16;101768.16;;;-3.10;60.18
27805;BME280;15183;51.350;11.102;2022-12-18T08:04:43;101785.25;;;-3.08;60.91
27805;BME280;15183;51.350;11.102;2022-12-18T08:07:09;101796.13;;;-3.01;61.15
27805;BME280;15183;51.350;11.102;2022-12-18T08:09:36;101796.06;;;-2.99;60.71
27805;BME280;15183;51.350;11.102;2022-12-18T08:12:02;101807.56;;;-2.89;61.08
27805;BME280;15183;51.350;11.102;2022-12-18T08:14:29;101800.31;;;-2.98;60.65
27805;BME280;15183;51.350;11.102;2022-12-18T08:16:55;101785.91;;;-3.18;61.29
27805;BME280;15183;51.350;11.102;2022-12-18T08:19:22;101808.78;;;-3.11;61.01
27805;BME280;15183;51.350;11.102;2022-12-18T08:21:48;101808.69;;;-3.09;61.48
27805;BME280;15183;51.350;11.102;2022-12-18T08:24:15;101820.78;;;-2.94;61.74
27805;BME280;15183;51.350;11.102;2022-12-18T08:26:41;101812.19;;;-2.94;61.38
27805;BME280;15183;51.350;11.102;2022-12-18T08:29:11;101806.66;;;-2.88;61.77
27805;BME280;15183;51.350;11.102;2022-12-18T08:31:38;101778.28;;;-2.91;61.36
27805;BME280;15183;51.350;11.102;2022-12-18T08:34:04;101778.75;;;-2.84;61.15
27805;BME280;15183;51.350;11.102;2022-12-18T08:36:31;101786.47;;;-2.68;61.75
27805;BME280;15183;51.350;11.102;2022-12-18T08:38:57;101771.47;;;-2.78;61.18
27805;BME280;15183;51.350;11.102;2022-12-18T08:41:24;101793.63;;;-2.57;60.90
27805;BME280;15183;51.350;11.102;2022-12-18T08:43:51;101787.09;;;-2.49;61.09
27805;BME280;15183;51.350;11.102;2022-12-18T08:46:41;101777.44;;;-2.47;61.14
27805;BME280;15183;51.350;11.102;2022-12-18T08:49:09;101766.69;;;-2.55;61.22
27805;BME280;15183;51.350;11.102;2022-12-18T08:51:38;101769.91;;;-2.51;61.89
27805;BME280;15183;51.350;11.102;2022-12-18T08:54:05;101761.94;;;-2.48;61.69
27805;BME280;15183;51.350;11.102;2022-12-18T08:56:33;101755.50;;;-2.41;61.47
27805;BME280;15183;51.350;11.102;2022-12-18T08:59:00;101759.19;;;-2.30;61.54
27805;BME280;15183;51.350;11.102;2022-12-18T09:01:26;101766.31;;;-2.34;61.08
27805;BME280;15183;51.350;11.102;2022-12-18T09:03:53;101771.81;;;-2.39;60.64
27805;BME280;15183;51.350;11.102;2022-12-18T09:06:21;101771.31;;;-2.45;59.54
27805;BME280;15183;51.350;11.102;2022-12-18T09:08:48;101750.16;;;-2.68;59.25
27805;BME280;15183;51.350;11.102;2022-12-18T09:11:25;101731.25;;;-2.85;59.64
27805;BME280;15183;51.350;11.102;2022-12-18T09:13:52;101753.03;;;-2.73;59.87
27805;BME280;15183;51.350;11.102;2022-12-18T09:16:21;101758.13;;;-2.71;59.74
27805;BME280;15183;51.350;11.102;2022-12-18T09:18:48;101738.66;;;-2.79;60.29
27805;BME280;15183;51.350;11.102;2022-12-18T09:21:20;101752.19;;;-2.73;60.16
27805;BME280;15183;51.350;11.102;2022-12-18T09:23:51;101727.00;;;-2.86;60.51
27805;BME280;15183;51.350;11.102;2022-12-18T09:26:18;101750.72;;;-2.78;60.11
27805;BME280;15183;51.350;11.102;2022-12-18T09:28:44;101754.53;;;-2.83;60.82
27805;BME280;15183;51.350;11.102;2022-12-18T09:31:12;101748.84;;;-2.90;59.76
27805;BME280;15183;51.350;11.102;2022-12-18T09:33:38;101756.56;;;-3.05;59.21
27805;BME280;15183;51.350;11.102;2022-12-18T09:36:08;101748.03;;;-3.07;60.15
27805;BME280;15183;51.350;11.102;2022-12-18T09:38:36;101741.78;;;-3.02;60.43
27805;BME280;15183;51.350;11.102;2022-12-18T09:49:30;101729.69;;;-2.73;61.62
27805;BME280;15183;51.350;11.102;2022-12-18T09:52:18;101735.00;;;-2.60;61.71
27805;BME280;15183;51.350;11.102;2022-12-18T09:54:59;101720.72;;;-2.53;62.39
27805;BME280;15183;51.350;11.102;2022-12-18T09:57:31;101708.22;;;-2.46;62.26
27805;BME280;15183;51.350;11.102;2022-12-18T10:00:12;101714.88;;;-2.27;62.74
27805;BME280;15183;51.350;11.102;2022-12-18T10:02:41;101722.56;;;-2.11;62.63
27805;BME280;15183;51.350;11.102;2022-12-18T10:05:17;101720.09;;;-2.00;62.04
27805;BME280;15183;51.350;11.102;2022-12-18T10:13:14;101711.31;;;-1.97;60.32
27805;BME280;15183;51.350;11.102;2022-12-18T10:16:17;101695.09;;;-2.15;59.66
27805;BME280;15183;51.350;11.102;2022-12-18T10:18:56;101702.25;;;-2.19;59.95
27805;BME280;15183;51.350;11.102;2022-12-18T10:24:50;101691.22;;;-2.37;60.12
27805;BME280;15183;51.350;11.102;2022-12-18T10:27:24;101699.22;;;-2.40;60.69
27805;BME280;15183;51.350;11.102;2022-12-18T10:29:53;101719.59;;;-2.34;60.89
27805;BME280;15183;51.350;11.102;2022-12-18T10:32:26;101704.59;;;-2.43;60.26
27805;BME280;15183;51.350;11.102;2022-12-18T10:34:57;101713.84;;;-2.39;60.16
27805;BME280;15183;51.350;11.102;2022-12-18T10:37:28;101722.19;;;-2.34;60.12
27805;BME280;15183;51.350;11.102;2022-12-18T10:40:12;101699.22;;;-2.40;60.67
27805;BME280;15183;51.350;11.102;2022-12-18T10:42:40;101707.94;;;-2.27;60.70
27805;BME280;15183;51.350;11.102;2022-12-18T10:45:15;101708.09;;;-2.15;61.50
27805;BME280;15183;51.350;11.102;2022-12-18T10:47:49;101738.56;;;-1.90;61.55
27805;BME280;15183;51.350;11.102;2022-12-18T10:50:29;101743.63;;;-1.74;61.45
27805;BME280;15183;51.350;11.102;2022-12-18T10:53:03;101727.84;;;-1.71;61.81
27805;BME280;15183;51.350;11.102;2022-12-18T10:55:37;101722.34;;;-1.66;61.74
27805;BME280;15183;51.350;11.102;2022-12-18T10:58:38;101721.97;;;-1.60;61.79
27805;BME280;15183;51.350;11.102;2022-12-18T11:01:17;101715.91;;;-1.61;61.99
27805;BME280;15183;51.350;11.102;2022-12-18T11:03:58;101717.94;;;-1.51;62.55
27805;BME280;15183;51.350;11.102;2022-12-18T11:06:25;101710.47;;;-1.43;62.69
27805;BME280;15183;51.350;11.102;2022-12-18T11:09:05;101705.94;;;-1.26;62.37
27805;BME280;15183;51.350;11.102;2022-12-18T11:11:33;101680.78;;;-1.26;62.93
27805;BME280;15183;51.350;11.102;2022-12-18T11:14:06;101689.72;;;-1.04;62.81
27805;BME280;15183;51.350;11.102;2022-12-18T11:16:46;101705.47;;;-0.93;62.58
27805;BME280;15183;51.350;11.102;2022-12-18T11:19:36;101713.47;;;-0.83;62.21
27805;BME280;15183;51.350;11.102;2022-12-18T11:22:33;101700.56;;;-0.84;61.75
27805;BME280;15183;51.350;11.102;2022-12-18T11:25:19;101693.50;;;-0.82;61.74
27805;BME280;15183;51.350;11.102;2022-12-18T11:27:56;101691.81;;;-0.96;60.87
27805;BME280;15183;51.350;11.102;2022-12-18T11:30:37;101682.53;;;-1.26;59.10
27805;BME280;15183;51.350;11.102;2022-12-18T11:33:15;101700.59;;;-1.38;59.38
27805;BME280;15183;51.350;11.102;2022-12-18T11:35:59;101689.13;;;-1.61;59.74
27805;BME280;15183;51.350;11.102;2022-12-18T11:38:40;101692.47;;;-1.73;59.06
27805;BME280;15183;51.350;11.102;2022-12-18T11:41:26;101683.72;;;-1.85;59.84
27805;BME280;15183;51.350;11.102;2022-12-18T11:44:52;101679.28;;;-1.98;60.13
27805;BME280;15183;51.350;11.102;2022-12-18T11:50:24;101663.22;;;-2.17;60.33
27805;BME280;15183;51.350;11.102;2022-12-18T11:52:51;101656.91;;;-2.28;60.04
27805;BME280;15183;51.350;11.102;2022-12-18T12:03:58;101639.81;;;-2.45;60.51
27805;BME280;15183;51.350;11.102;2022-12-18T12:09:18;101656.56;;;-2.22;61.35
27805;BME280;15183;51.350;11.102;2022-12-18T12:12:10;101648.19;;;-2.12;60.83
27805;BME280;15183;51.350;11.102;2022-12-18T12:18:27;101654.22;;;-2.26;59.22
27805;BME280;15183;51.350;11.102;2022-12-18T12:21:26;101645.75;;;-2.57;59.39
27805;BME280;15183;51.350;11.102;2022-12-18T12:24:24;101647.25;;;-2.68;59.83
27805;BME280;15183;51.350;11.102;2022-12-18T12:27:25;101642.06;;;-2.82;59.72
27805;BME280;15183;51.350;11.102;2022-12-18T12:30:23;101644.63;;;-2.97;59.81
27805;BME280;15183;51.350;11.102;2022-12-18T12:36:12;101626.69;;;-3.14;60.31
27805;BME280;15183;51.350;11.102;2022-12-18T12:38:59;101596.00;;;-3.37;60.37
27805;BME280;15183;51.350;11.102;2022-12-18T12:41:31;101613.78;;;-3.30;61.14
27805;BME280;15183;51.350;11.102;2022-12-18T12:44:57;101615.88;;;-3.37;59.78
27805;BME280;15183;51.350;11.102;2022-12-18T12:49:51;101616.88;;;-3.54;60.65
27805;BME280;15183;51.350;11.102;2022-12-18T12:52:35;101617.53;;;-3.51;60.00
27805;BME280;15183;51.350;11.102;2022-12-18T12:55:06;101613.53;;;-3.56;60.07
27805;BME280;15183;51.350;11.102;2022-12-18T12:57:41;101617.97;;;-3.58;60.37
27805;BME280;15183;51.350;11.102;2022-12-18T13:00:16;101602.13;;;-3.68;59.75
27805;BME280;15183;51.350;11.102;2022-12-18T13:03:18;101613.78;;;-3.61;59.98
27805;BME280;15183;51.350;11.102;2022-12-18T13:05:56;101608.16;;;-3.68;59.91
27805;BME280;15183;51.350;11.102;2022-12-18T13:08:31;101609.72;;;-3.65;59.86
27805;BME280;15183;51.350;11.102;2022-12-18T13:11:00;101604.44;;;-3.64;60.21
27805;BME280;15183;51.350;11.102;2022-12-18T13:13:55;101598.91;;;-3.57;59.78
27805;BME280;15183;51.350;11.102;2022-12-18T13:16:24;101596.50;;;-3.60;59.47
27805;BME280;15183;51.350;11.102;2022-12-18T13:18:56;101577.88;;;-3.67;59.44
27805;BME280;15183;51.350;11.102;2022-12-18T13:21:29;101575.13;;;-3.64;59.69
27805;BME280;15183;51.350;11.102;2022-12-18T13:23:57;101569.19;;;-3.66;59.81
27805;BME280;15183;51.350;11.102;2022-12-18T13:26:40;101562.63;;;-3.72;59.34
27805;BME280;15183;51.350;11.102;2022-12-18T13:29:07;101567.06;;;-3.74;60.07
27805;BME280;15183;51.350;11.102;2022-12-18T13:31:57;101566.31;;;-3.76;59.47
27805;BME280;15183;51.350;11.102;2022-12-18T13:34:26;101559.56;;;-3.79;59.75
27805;BME280;15183;51.350;11.102;2022-12-18T13:36:55;101541.34;;;-3.77;60.24
27805;BME280;15183;51.350;11.102;2022-12-18T13:39:34;101552.03;;;-3.83;60.38
27805;BME280;15183;51.350;11.102;2022-12-18T13:44:39;101577.06;;;-3.68;60.48
27805;BME280;15183;51.350;11.102;2022-12-18T13:47:36;101581.78;;;-3.60;60.02
27805;BME280;15183;51.350;11.102;2022-12-18T13:50:24;101553.66;;;-3.66;60.20
27805;BME280;15183;51.350;11.102;2022-12-18T13:52:52;101584.50;;;-3.47;59.75
27805;BME280;15183;51.350;11.102;2022-12-18T13:55:20;101573.88;;;-3.57;59.21
27805;BME280;15183;51.350;11.102;2022-12-18T13:57:48;101547.97;;;-3.87;59.19
27805;BME280;15183;51.350;11.102;2022-12-18T14:00:34;101551.94;;;-3.96;59.77
27805;BME280;15183;51.350;11.102;2022-12-18T14:03:01;101574.41;;;-3.82;60.02
27805;BME280;15183;51.350;11.102;2022-12-18T14:05:34;101594.84;;;-3.61;60.81
27805;BME280;15183;51.350;11.102;2022-12-18T14:08:08;101561.00;;;-3.58;60.79
27805;BME280;15183;51.350;11.102;2022-12-18T14:10:47;101559.25;;;-3.43;61.18
27805;BME280;15183;51.350;11.102;2022-12-18T14:13:31;101545.75;;;-3.34;60.73
27805;BME280;15183;51.350;11.102;2022-12-18T14:16:01;101564.91;;;-3.08;61.17
27805;BME280;15183;51.350;11.102;2022-12-18T14:18:54;101567.31;;;-2.90;61.16
27805;BME280;15183;51.350;11.102;2022-12-18T14:21:29;101554.50;;;-2.79;61.27
27805;BME280;15183;51.350;11.102;2022-12-18T14:26:34;101551.22;;;-2.53;61.27
27805;BME280;15183;51.350;11.102;2022-12-18T14:29:26;101547.03;;;-2.41;61.27
27805;BME280;15183;51.350;11.102;2022-12-18T14:32:28;101534.00;;;-2.27;61.74